sensor_id;sensor_type;location;lat;lon;timestamp;P1;durP1;ratioP1;P2;durP2;ratioP2
18142;SDS011;9197;50.930;3.140;2022-08-19T00:00:49;33.43;;;26.40;;
18142;SDS011;9197;50.930;3.140;2022-08-19T00:03:17;31.13;;;25.57;;
18142;SDS011;9197;50.930;3.140;2022-08-19T00:05:45;34.40;;;26.27;;
18142;SDS011;9197;50.930;3.140;2022-08-19T00:08:12;32.43;;;24.93;;
18142;SDS011;9197;50.930;3.140;2022-08-19T00:10:39;38.17;;;26.10;;
18142;SDS011;9197;50.930;3.140;2022-08-19T00:13:06;34.47;;;26.10;;
18142;SDS011;9197;50.930;3.140;2022-08-19T00:15:34;29.43;;;24.67;;
18142;SDS011;9197;50.930;3.140;2022-08-19T00:18:01;30.57;;;26.43;;
18142;SDS011;9197;50.930;3.140;2022-08-19T00:20:29;32.17;;;25.53;;
18142;SDS011;9197;50.930;3.140;2022-08-19T00:22:57;32.73;;;25.70;;
18142;SDS011;9197;50.930;3.140;2022-08-19T00:25:24;31.67;;;25.87;;
18142;SDS011;9197;50.930;3.140;2022-08-19T00:27:51;33.57;;;26.27;;
18142;SDS011;9197;50.930;3.140;2022-08-19T00:30:19;31.67;;;25.90;;
18142;SDS011;9197;50.930;3.140;2022-08-19T00:32:46;33.33;;;25.20;;
18142;SDS011;9197;50.930;3.140;2022-08-19T00:35:13;31.80;;;26.10;;
18142;SDS011;9197;50.930;3.140;2022-08-19T00:37:42;35.03;;;25.27;;
18142;SDS011;9197;50.930;3.140;2022-08-19T00:40:12;33.30;;;27.87;;
18142;SDS011;9197;50.930;3.140;2022-08-19T00:42:39;34.77;;;25.80;;
18142;SDS011;9197;50.930;3.140;2022-08-19T00:45:09;31.00;;;26.07;;
18142;SDS011;9197;50.930;3.140;2022-08-19T00:47:37;29.17;;;24.57;;
18142;SDS011;9197;50.930;3.140;2022-08-19T00:50:04;31.37;;;25.37;;
18142;SDS011;9197;50.930;3.140;2022-08-19T00:52:33;33.40;;;23.97;;
18142;SDS011;9197;50.930;3.140;2022-08-19T00:55:02;31.73;;;26.80;;
18142;SDS011;9197;50.930;3.140;2022-08-19T00:57:32;34.33;;;27.27;;
18142;SDS011;9197;50.930;3.140;2022-08-19T01:00:04;31.90;;;25.67;;
18142;SDS011;9197;50.930;3.140;2022-08-19T01:02:31;29.83;;;25.23;;
18142;SDS011;9197;50.930;3.140;2022-08-19T01:04:59;32.47;;;25.47;;
18142;SDS011;9197;50.930;3.140;2022-08-19T01:07:27;29.63;;;24.40;;
18142;SDS011;9197;50.930;3.140;2022-08-19T01:09:54;38.73;;;27.57;;
18142;SDS011;9197;50.930;3.140;2022-08-19T01:12:21;35.53;;;26.73;;
18142;SDS011;9197;50.930;3.140;2022-08-19T01:14:50;34.03;;;25.77;;
18142;SDS011;9197;50.930;3.140;2022-08-19T01:17:18;30.60;;;24.63;;
18142;SDS011;9197;50.930;3.140;2022-08-19T01:19:45;34.13;;;26.07;;
18142;SDS011;9197;50.930;3.140;2022-08-19T01:22:15;39.87;;;28.67;;
18142;SDS011;9197;50.930;3.140;2022-08-19T01:24:45;35.80;;;26.67;;
18142;SDS011;9197;50.930;3.140;2022-08-19T01:27:12;38.07;;;27.57;;
18142;SDS011;9197;50.930;3.140;2022-08-19T01:29:40;32.43;;;25.33;;
18142;SDS011;9197;50.930;3.140;2022-08-19T01:32:07;35.50;;;27.10;;
18142;SDS011;9197;50.930;3.140;2022-08-19T01:34:35;36.53;;;26.60;;
18142;SDS011;9197;50.930;3.140;2022-08-19T01:37:05;35.07;;;26.33;;
18142;SDS011;9197;50.930;3.140;2022-08-19T01:39:34;30.60;;;27.20;;
18142;SDS011;9197;50.930;3.140;2022-08-19T01:42:02;33.23;;;24.47;;
18142;SDS011;9197;50.930;3.140;2022-08-19T01:44:31;31.90;;;25.27;;
18142;SDS011;9197;50.930;3.140;2022-08-19T01:46:58;34.23;;;25.67;;
18142;SDS011;9197;50.930;3.140;2022-08-19T01:49:25;35.77;;;25.00;;
18142;SDS011;9197;50.930;3.140;2022-08-19T01:51:53;34.00;;;25.87;;
18142;SDS011;9197;50.930;3.140;2022-08-19T01:54:21;33.63;;;25.63;;
18142;SDS011;9197;50.930;3.140;2022-08-19T01:56:49;33.97;;;24.17;;
18142;SDS011;9197;50.930;3.140;2022-08-19T01:59:19;31.80;;;23.87;;
18142;SDS011;9197;50.930;3.140;2022-08-19T02:01:47;35.40;;;23.73;;
18142;SDS011;9197;50.930;3.140;2022-08-19T02:04:14;32.67;;;23.50;;
18142;SDS011;9197;50.930;3.140;2022-08-19T02:06:41;32.00;;;24.27;;
18142;SDS011;9197;50.930;3.140;2022-08-19T02:09:09;33.53;;;25.13;;
18142;SDS011;9197;50.930;3.140;2022-08-19T02:11:36;30.93;;;23.33;;
18142;SDS011;9197;50.930;3.140;2022-08-19T02:14:05;27.13;;;22.50;;
18142;SDS011;9197;50.930;3.140;2022-08-19T02:16:34;29.63;;;23.23;;
18142;SDS011;9197;50.930;3.140;2022-08-19T02:19:02;35.23;;;21.77;;
18142;SDS011;9197;50.930;3.140;2022-08-19T02:21:29;26.53;;;21.13;;
18142;SDS011;9197;50.930;3.140;2022-08-19T02:23:57;28.37;;;22.43;;
18142;SDS011;9197;50.930;3.140;2022-08-19T02:26:25;27.70;;;21.97;;
18142;SDS011;9197;50.930;3.140;2022-08-19T02:28:52;28.80;;;21.70;;
18142;SDS011;9197;50.930;3.140;2022-08-19T02:31:21;29.47;;;21.37;;
18142;SDS011;9197;50.930;3.140;2022-08-19T02:33:50;29.80;;;21.33;;
18142;SDS011;9197;50.930;3.140;2022-08-19T02:36:18;31.53;;;21.83;;
18142;SDS011;9197;50.930;3.140;2022-08-19T02:38:45;30.83;;;20.63;;
18142;SDS011;9197;50.930;3.140;2022-08-19T02:41:13;30.10;;;20.90;;
18142;SDS011;9197;50.930;3.140;2022-08-19T02:43:40;25.57;;;20.03;;
18142;SDS011;9197;50.930;3.140;2022-08-19T02:46:11;28.13;;;21.30;;
18142;SDS011;9197;50.930;3.140;2022-08-19T02:48:38;28.87;;;19.57;;
18142;SDS011;9197;50.930;3.140;2022-08-19T02:51:07;29.57;;;20.37;;
18142;SDS011;9197;50.930;3.140;2022-08-19T02:53:34;31.17;;;20.50;;
18142;SDS011;9197;50.930;3.140;2022-08-19T02:56:05;25.57;;;20.13;;
18142;SDS011;9197;50.930;3.140;2022-08-19T02:58:32;27.63;;;19.13;;
18142;SDS011;9197;50.930;3.140;2022-08-19T03:01:00;25.87;;;18.70;;
18142;SDS011;9197;50.930;3.140;2022-08-19T03:03:27;25.37;;;19.10;;
18142;SDS011;9197;50.930;3.140;2022-08-19T03:06:08;27.33;;;18.73;;
18142;SDS011;9197;50.930;3.140;2022-08-19T03:08:38;23.43;;;18.60;;
18142;SDS011;9197;50.930;3.140;2022-08-19T03:11:05;25.37;;;18.27;;
18142;SDS011;9197;50.930;3.140;2022-08-19T03:13:32;24.73;;;18.57;;
18142;SDS011;9197;50.930;3.140;2022-08-19T03:16:04;27.40;;;18.97;;
18142;SDS011;9197;50.930;3.140;2022-08-19T03:18:31;23.73;;;18.47;;
18142;SDS011;9197;50.930;3.140;2022-08-19T03:20:59;28.07;;;17.97;;
18142;SDS011;9197;50.930;3.140;2022-08-19T03:23:27;23.83;;;18.27;;
18142;SDS011;9197;50.930;3.140;2022-08-19T03:25:54;24.07;;;17.10;;
18142;SDS011;9197;50.930;3.140;2022-08-19T03:28:22;26.07;;;17.57;;
18142;SDS011;9197;50.930;3.140;2022-08-19T03:30:56;25.83;;;17.67;;
18142;SDS011;9197;50.930;3.140;2022-08-19T03:33:23;20.90;;;16.17;;
18142;SDS011;9197;50.930;3.140;2022-08-19T03:36:05;21.17;;;16.03;;
18142;SDS011;9197;50.930;3.140;2022-08-19T03:38:35;23.60;;;16.40;;
18142;SDS011;9197;50.930;3.140;2022-08-19T03:41:03;30.73;;;17.40;;
18142;SDS011;9197;50.930;3.140;2022-08-19T03:43:31;23.03;;;17.27;;
18142;SDS011;9197;50.930;3.140;2022-08-19T03:46:00;25.97;;;16.63;;
18142;SDS011;9197;50.930;3.140;2022-08-19T03:48:27;19.73;;;17.33;;
18142;SDS011;9197;50.930;3.140;2022-08-19T03:50:55;23.27;;;16.97;;
18142;SDS011;9197;50.930;3.140;2022-08-19T03:53:24;27.00;;;18.53;;
18142;SDS011;9197;50.930;3.140;2022-08-19T03:55:53;25.73;;;16.60;;
18142;SDS011;9197;50.930;3.140;2022-08-19T03:58:20;20.20;;;16.50;;
18142;SDS011;9197;50.930;3.140;2022-08-19T04:00:47;27.17;;;15.57;;
18142;SDS011;9197;50.930;3.140;2022-08-19T04:03:14;25.67;;;17.20;;
18142;SDS011;9197;50.930;3.140;2022-08-19T04:05:43;26.07;;;16.37;;
18142;SDS011;9197;50.930;3.140;2022-08-19T04:08:10;26.40;;;16.67;;
18142;SDS011;9197;50.930;3.140;2022-08-19T04:10:38;22.93;;;16.60;;
18142;SDS011;9197;50.930;3.140;2022-08-19T04:13:08;22.77;;;17.93;;
18142;SDS011;9197;50.930;3.140;2022-08-19T04:15:38;25.80;;;16.87;;
18142;SDS011;9197;50.930;3.140;2022-08-19T04:18:06;25.67;;;17.57;;
18142;SDS011;9197;50.930;3.140;2022-08-19T04:20:38;26.57;;;16.70;;
18142;SDS011;9197;50.930;3.140;2022-08-19T04:23:05;26.47;;;16.80;;
18142;SDS011;9197;50.930;3.140;2022-08-19T04:25:34;23.03;;;15.37;;
18142;SDS011;9197;50.930;3.140;2022-08-19T04:28:02;32.93;;;16.90;;
18142;SDS011;9197;50.930;3.140;2022-08-19T04:30:30;29.93;;;16.93;;
18142;SDS011;9197;50.930;3.140;2022-08-19T04:32:58;26.57;;;15.87;;
18142;SDS011;9197;50.930;3.140;2022-08-19T04:35:25;23.37;;;15.60;;
18142;SDS011;9197;50.930;3.140;2022-08-19T04:37:52;29.80;;;17.77;;
18142;SDS011;9197;50.930;3.140;2022-08-19T04:40:19;33.27;;;18.80;;
18142;SDS011;9197;50.930;3.140;2022-08-19T04:43:04;39.77;;;18.37;;
18142;SDS011;9197;50.930;3.140;2022-08-19T04:45:32;31.27;;;18.83;;
18142;SDS011;9197;50.930;3.140;2022-08-19T04:48:00;26.43;;;17.77;;
18142;SDS011;9197;50.930;3.140;2022-08-19T04:50:27;34.60;;;18.27;;
18142;SDS011;9197;50.930;3.140;2022-08-19T04:52:54;26.50;;;16.63;;
18142;SDS011;9197;50.930;3.140;2022-08-19T04:55:21;24.40;;;16.17;;
18142;SDS011;9197;50.930;3.140;2022-08-19T04:57:50;34.50;;;18.30;;
18142;SDS011;9197;50.930;3.140;2022-08-19T05:00:17;22.13;;;16.17;;
18142;SDS011;9197;50.930;3.140;2022-08-19T05:02:46;24.63;;;17.40;;
18142;SDS011;9197;50.930;3.140;2022-08-19T05:05:14;25.60;;;17.70;;
18142;SDS011;9197;50.930;3.140;2022-08-19T05:07:41;27.57;;;17.07;;
18142;SDS011;9197;50.930;3.140;2022-08-19T05:10:08;24.77;;;16.17;;
18142;SDS011;9197;50.930;3.140;2022-08-19T05:12:36;23.73;;;16.97;;
18142;SDS011;9197;50.930;3.140;2022-08-19T05:15:04;22.60;;;17.10;;
18142;SDS011;9197;50.930;3.140;2022-08-19T05:17:34;25.93;;;17.73;;
18142;SDS011;9197;50.930;3.140;2022-08-19T05:20:03;23.07;;;17.17;;
18142;SDS011;9197;50.930;3.140;2022-08-19T05:22:48;21.07;;;15.80;;
18142;SDS011;9197;50.930;3.140;2022-08-19T05:25:16;21.40;;;15.20;;
18142;SDS011;9197;50.930;3.140;2022-08-19T05:27:44;21.97;;;15.23;;
18142;SDS011;9197;50.930;3.140;2022-08-19T05:30:12;18.30;;;14.88;;
18142;SDS011;9197;50.930;3.140;2022-08-19T05:32:39;21.33;;;14.48;;
18142;SDS011;9197;50.930;3.140;2022-08-19T05:35:08;19.15;;;14.23;;
18142;SDS011;9197;50.930;3.140;2022-08-19T05:37:36;21.10;;;15.27;;
18142;SDS011;9197;50.930;3.140;2022-08-19T05:40:05;18.63;;;14.48;;
18142;SDS011;9197;50.930;3.140;2022-08-19T05:42:32;15.85;;;14.23;;
18142;SDS011;9197;50.930;3.140;2022-08-19T05:45:00;18.13;;;14.23;;
18142;SDS011;9197;50.930;3.140;2022-08-19T05:47:27;19.23;;;14.40;;
18142;SDS011;9197;50.930;3.140;2022-08-19T05:49:54;18.58;;;13.30;;
18142;SDS011;9197;50.930;3.140;2022-08-19T05:52:23;18.60;;;13.55;;
18142;SDS011;9197;50.930;3.140;2022-08-19T05:54:50;14.23;;;11.73;;
18142;SDS011;9197;50.930;3.140;2022-08-19T05:57:19;13.05;;;11.73;;
18142;SDS011;9197;50.930;3.140;2022-08-19T05:59:46;15.73;;;11.77;;
18142;SDS011;9197;50.930;3.140;2022-08-19T06:02:16;13.93;;;11.10;;
18142;SDS011;9197;50.930;3.140;2022-08-19T06:04:43;13.68;;;11.13;;
18142;SDS011;9197;50.930;3.140;2022-08-19T06:07:10;16.70;;;12.13;;
18142;SDS011;9197;50.930;3.140;2022-08-19T06:09:39;16.42;;;10.57;;
18142;SDS011;9197;50.930;3.140;2022-08-19T06:12:06;14.70;;;9.98;;
18142;SDS011;9197;50.930;3.140;2022-08-19T06:14:34;11.75;;;10.05;;
18142;SDS011;9197;50.930;3.140;2022-08-19T06:17:02;11.77;;;9.95;;
18142;SDS011;9197;50.930;3.140;2022-08-19T06:19:29;12.82;;;11.48;;
18142;SDS011;9197;50.930;3.140;2022-08-19T06:21:57;15.63;;;10.68;;
18142;SDS011;9197;50.930;3.140;2022-08-19T06:24:25;13.10;;;10.30;;
18142;SDS011;9197;50.930;3.140;2022-08-19T06:26:54;12.18;;;9.93;;
18142;SDS011;9197;50.930;3.140;2022-08-19T06:29:22;13.07;;;10.70;;
18142;SDS011;9197;50.930;3.140;2022-08-19T06:31:50;11.93;;;9.77;;
18142;SDS011;9197;50.930;3.140;2022-08-19T06:34:18;14.43;;;10.60;;
18142;SDS011;9197;50.930;3.140;2022-08-19T06:36:46;12.52;;;11.07;;
18142;SDS011;9197;50.930;3.140;2022-08-19T06:39:14;11.65;;;9.10;;
18142;SDS011;9197;50.930;3.140;2022-08-19T06:41:43;12.15;;;10.20;;
18142;SDS011;9197;50.930;3.140;2022-08-19T06:44:11;13.38;;;9.13;;
18142;SDS011;9197;50.930;3.140;2022-08-19T06:46:39;12.10;;;9.60;;
18142;SDS011;9197;50.930;3.140;2022-08-19T06:49:07;12.68;;;9.60;;
18142;SDS011;9197;50.930;3.140;2022-08-19T06:51:36;14.00;;;9.50;;
18142;SDS011;9197;50.930;3.140;2022-08-19T06:54:04;11.80;;;9.45;;
18142;SDS011;9197;50.930;3.140;2022-08-19T06:56:32;13.52;;;10.05;;
18142;SDS011;9197;50.930;3.140;2022-08-19T06:59:00;11.52;;;9.88;;
18142;SDS011;9197;50.930;3.140;2022-08-19T07:01:28;12.35;;;9.57;;
18142;SDS011;9197;50.930;3.140;2022-08-19T07:03:56;10.65;;;9.40;;
18142;SDS011;9197;50.930;3.140;2022-08-19T07:06:23;14.27;;;10.45;;
18142;SDS011;9197;50.930;3.140;2022-08-19T07:08:50;12.88;;;11.27;;
18142;SDS011;9197;50.930;3.140;2022-08-19T07:11:18;10.95;;;8.93;;
18142;SDS011;9197;50.930;3.140;2022-08-19T07:13:45;10.13;;;9.13;;
18142;SDS011;9197;50.930;3.140;2022-08-19T07:16:14;12.07;;;10.15;;
18142;SDS011;9197;50.930;3.140;2022-08-19T07:18:43;9.85;;;8.85;;
18142;SDS011;9197;50.930;3.140;2022-08-19T07:21:12;11.65;;;9.27;;
18142;SDS011;9197;50.930;3.140;2022-08-19T07:23:40;9.93;;;8.65;;
18142;SDS011;9197;50.930;3.140;2022-08-19T07:26:07;9.40;;;8.25;;
18142;SDS011;9197;50.930;3.140;2022-08-19T07:28:34;8.98;;;7.30;;
18142;SDS011;9197;50.930;3.140;2022-08-19T07:31:04;11.20;;;7.60;;
18142;SDS011;9197;50.930;3.140;2022-08-19T07:33:32;10.85;;;7.50;;
18142;SDS011;9197;50.930;3.140;2022-08-19T07:36:04;11.43;;;7.35;;
18142;SDS011;9197;50.930;3.140;2022-08-19T07:38:31;8.43;;;7.28;;
18142;SDS011;9197;50.930;3.140;2022-08-19T07:40:58;8.90;;;6.72;;
18142;SDS011;9197;50.930;3.140;2022-08-19T07:43:26;9.27;;;7.25;;
18142;SDS011;9197;50.930;3.140;2022-08-19T07:45:53;8.48;;;6.65;;
18142;SDS011;9197;50.930;3.140;2022-08-19T07:48:22;10.52;;;6.35;;
18142;SDS011;9197;50.930;3.140;2022-08-19T07:50:50;8.40;;;6.68;;
18142;SDS011;9197;50.930;3.140;2022-08-19T07:53:18;7.93;;;6.43;;
18142;SDS011;9197;50.930;3.140;2022-08-19T07:55:46;7.68;;;6.32;;
18142;SDS011;9197;50.930;3.140;2022-08-19T07:58:14;12.13;;;6.45;;
18142;SDS011;9197;50.930;3.140;2022-08-19T08:00:42;6.63;;;6.00;;
18142;SDS011;9197;50.930;3.140;2022-08-19T08:03:12;6.53;;;5.90;;
18142;SDS011;9197;50.930;3.140;2022-08-19T08:05:39;8.18;;;6.13;;
18142;SDS011;9197;50.930;3.140;2022-08-19T08:08:26;9.00;;;5.97;;
18142;SDS011;9197;50.930;3.140;2022-08-19T08:11:11;6.22;;;5.43;;
18142;SDS011;9197;50.930;3.140;2022-08-19T08:13:38;5.68;;;5.05;;
18142;SDS011;9197;50.930;3.140;2022-08-19T08:16:06;5.50;;;4.50;;
18142;SDS011;9197;50.930;3.140;2022-08-19T08:18:33;4.93;;;4.43;;
18142;SDS011;9197;50.930;3.140;2022-08-19T08:21:06;5.20;;;4.65;;
18142;SDS011;9197;50.930;3.140;2022-08-19T08:23:35;6.47;;;4.68;;
18142;SDS011;9197;50.930;3.140;2022-08-19T08:26:02;4.45;;;4.05;;
18142;SDS011;9197;50.930;3.140;2022-08-19T08:28:29;5.00;;;4.55;;
18142;SDS011;9197;50.930;3.140;2022-08-19T08:30:57;4.18;;;3.88;;
18142;SDS011;9197;50.930;3.140;2022-08-19T08:33:25;6.53;;;4.07;;
18142;SDS011;9197;50.930;3.140;2022-08-19T08:35:52;3.55;;;3.17;;
18142;SDS011;9197;50.930;3.140;2022-08-19T08:38:19;3.88;;;2.88;;
18142;SDS011;9197;50.930;3.140;2022-08-19T08:40:49;5.03;;;3.20;;
18142;SDS011;9197;50.930;3.140;2022-08-19T08:43:20;6.07;;;3.28;;
18142;SDS011;9197;50.930;3.140;2022-08-19T08:45:49;2.83;;;2.60;;
18142;SDS011;9197;50.930;3.140;2022-08-19T08:48:21;5.43;;;3.28;;
18142;SDS011;9197;50.930;3.140;2022-08-19T08:50:49;4.90;;;2.85;;
18142;SDS011;9197;50.930;3.140;2022-08-19T08:53:18;4.80;;;3.28;;
18142;SDS011;9197;50.930;3.140;2022-08-19T08:55:46;4.55;;;3.15;;
18142;SDS011;9197;50.930;3.140;2022-08-19T08:58:16;3.97;;;3.63;;
18142;SDS011;9197;50.930;3.140;2022-08-19T09:00:45;4.78;;;2.80;;
18142;SDS011;9197;50.930;3.140;2022-08-19T09:03:18;3.40;;;2.97;;
18142;SDS011;9197;50.930;3.140;2022-08-19T09:05:48;3.17;;;2.88;;
18142;SDS011;9197;50.930;3.140;2022-08-19T09:08:17;3.13;;;2.83;;
18142;SDS011;9197;50.930;3.140;2022-08-19T09:10:51;6.82;;;3.15;;
18142;SDS011;9197;50.930;3.140;2022-08-19T09:13:21;2.85;;;2.60;;
18142;SDS011;9197;50.930;3.140;2022-08-19T09:15:52;5.00;;;2.70;;
18142;SDS011;9197;50.930;3.140;2022-08-19T09:18:21;3.50;;;2.72;;
18142;SDS011;9197;50.930;3.140;2022-08-19T09:20:48;6.10;;;2.25;;
18142;SDS011;9197;50.930;3.140;2022-08-19T09:23:18;5.55;;;1.90;;
18142;SDS011;9197;50.930;3.140;2022-08-19T09:25:49;2.60;;;1.65;;
18142;SDS011;9197;50.930;3.140;2022-08-19T09:28:16;2.60;;;1.38;;
18142;SDS011;9197;50.930;3.140;2022-08-19T09:30:45;2.88;;;1.75;;
18142;SDS011;9197;50.930;3.140;2022-08-19T09:33:12;2.25;;;1.90;;
18142;SDS011;9197;50.930;3.140;2022-08-19T09:35:41;2.15;;;2.05;;
18142;SDS011;9197;50.930;3.140;2022-08-19T09:38:08;4.45;;;2.75;;
18142;SDS011;9197;50.930;3.140;2022-08-19T09:40:35;5.22;;;2.72;;
18142;SDS011;9197;50.930;3.140;2022-08-19T09:43:02;2.55;;;2.20;;
18142;SDS011;9197;50.930;3.140;2022-08-19T09:45:30;4.78;;;2.47;;
18142;SDS011;9197;50.930;3.140;2022-08-19T09:47:58;4.53;;;2.55;;
18142;SDS011;9197;50.930;3.140;2022-08-19T09:50:25;2.50;;;1.77;;
18142;SDS011;9197;50.930;3.140;2022-08-19T09:52:53;1.98;;;1.80;;
18142;SDS011;9197;50.930;3.140;2022-08-19T09:55:20;2.47;;;1.63;;
18142;SDS011;9197;50.930;3.140;2022-08-19T09:57:47;2.20;;;1.90;;
18142;SDS011;9197;50.930;3.140;2022-08-19T10:00:14;3.17;;;1.90;;
18142;SDS011;9197;50.930;3.140;2022-08-19T10:02:41;3.17;;;1.65;;
18142;SDS011;9197;50.930;3.140;2022-08-19T10:05:10;1.85;;;1.23;;
18142;SDS011;9197;50.930;3.140;2022-08-19T10:07:55;3.33;;;1.05;;
18142;SDS011;9197;50.930;3.140;2022-08-19T10:10:22;1.25;;;1.02;;
18142;SDS011;9197;50.930;3.140;2022-08-19T10:12:50;2.60;;;0.90;;
18142;SDS011;9197;50.930;3.140;2022-08-19T10:15:17;2.08;;;1.05;;
18142;SDS011;9197;50.930;3.140;2022-08-19T10:17:46;1.25;;;1.00;;
18142;SDS011;9197;50.930;3.140;2022-08-19T10:20:14;1.55;;;1.45;;
18142;SDS011;9197;50.930;3.140;2022-08-19T10:22:41;1.85;;;1.30;;
18142;SDS011;9197;50.930;3.140;2022-08-19T10:25:09;1.58;;;1.40;;
18142;SDS011;9197;50.930;3.140;2022-08-19T10:27:37;2.72;;;1.50;;
18142;SDS011;9197;50.930;3.140;2022-08-19T10:30:05;2.25;;;1.60;;
18142;SDS011;9197;50.930;3.140;2022-08-19T10:32:33;2.42;;;1.30;;
18142;SDS011;9197;50.930;3.140;2022-08-19T10:35:01;2.95;;;1.00;;
18142;SDS011;9197;50.930;3.140;2022-08-19T10:37:32;1.73;;;1.08;;
18142;SDS011;9197;50.930;3.140;2022-08-19T10:39:59;1.83;;;1.38;;
18142;SDS011;9197;50.930;3.140;2022-08-19T10:42:27;1.52;;;0.90;;
18142;SDS011;9197;50.930;3.140;2022-08-19T10:44:56;1.05;;;0.90;;
18142;SDS011;9197;50.930;3.140;2022-08-19T10:47:23;1.55;;;0.93;;
18142;SDS011;9197;50.930;3.140;2022-08-19T10:49:50;2.42;;;1.70;;
18142;SDS011;9197;50.930;3.140;2022-08-19T10:52:36;3.03;;;1.17;;
18142;SDS011;9197;50.930;3.140;2022-08-19T10:55:04;5.72;;;2.00;;
18142;SDS011;9197;50.930;3.140;2022-08-19T10:57:50;3.53;;;1.58;;
18142;SDS011;9197;50.930;3.140;2022-08-19T11:00:18;1.88;;;1.77;;
18142;SDS011;9197;50.930;3.140;2022-08-19T11:02:48;1.67;;;1.58;;
18142;SDS011;9197;50.930;3.140;2022-08-19T11:05:15;1.77;;;1.60;;
18142;SDS011;9197;50.930;3.140;2022-08-19T11:07:44;4.38;;;1.80;;
18142;SDS011;9197;50.930;3.140;2022-08-19T11:10:12;2.15;;;1.90;;
18142;SDS011;9197;50.930;3.140;2022-08-19T11:12:44;4.47;;;1.75;;
18142;SDS011;9197;50.930;3.140;2022-08-19T11:15:12;3.03;;;1.88;;
18142;SDS011;9197;50.930;3.140;2022-08-19T11:17:40;3.42;;;1.50;;
18142;SDS011;9197;50.930;3.140;2022-08-19T11:20:09;3.45;;;2.22;;
18142;SDS011;9197;50.930;3.140;2022-08-19T11:22:37;2.70;;;1.83;;
18142;SDS011;9197;50.930;3.140;2022-08-19T11:25:06;4.65;;;2.17;;
18142;SDS011;9197;50.930;3.140;2022-08-19T11:27:36;2.97;;;2.38;;
18142;SDS011;9197;50.930;3.140;2022-08-19T11:30:05;2.88;;;1.60;;
18142;SDS011;9197;50.930;3.140;2022-08-19T11:32:32;3.72;;;1.73;;
18142;SDS011;9197;50.930;3.140;2022-08-19T11:34:59;4.22;;;1.75;;
18142;SDS011;9197;50.930;3.140;2022-08-19T11:37:27;1.77;;;1.33;;
18142;SDS011;9197;50.930;3.140;2022-08-19T11:39:54;2.65;;;1.50;;
18142;SDS011;9197;50.930;3.140;2022-08-19T11:42:22;2.08;;;1.67;;
18142;SDS011;9197;50.930;3.140;2022-08-19T11:45:07;4.07;;;1.70;;
18142;SDS011;9197;50.930;3.140;2022-08-19T11:47:35;3.88;;;1.73;;
18142;SDS011;9197;50.930;3.140;2022-08-19T11:50:04;3.38;;;1.83;;
18142;SDS011;9197;50.930;3.140;2022-08-19T11:52:31;4.43;;;2.75;;
18142;SDS011;9197;50.930;3.140;2022-08-19T11:54:58;3.20;;;2.03;;
18142;SDS011;9197;50.930;3.140;2022-08-19T11:57:27;5.70;;;2.35;;
18142;SDS011;9197;50.930;3.140;2022-08-19T11:59:54;6.40;;;2.42;;
18142;SDS011;9197;50.930;3.140;2022-08-19T12:02:21;6.82;;;3.20;;
18142;SDS011;9197;50.930;3.140;2022-08-19T12:04:48;3.58;;;3.22;;
18142;SDS011;9197;50.930;3.140;2022-08-19T12:07:15;9.52;;;3.50;;
18142;SDS011;9197;50.930;3.140;2022-08-19T12:09:43;4.97;;;3.60;;
18142;SDS011;9197;50.930;3.140;2022-08-19T12:12:11;5.65;;;3.10;;
18142;SDS011;9197;50.930;3.140;2022-08-19T12:14:50;4.93;;;2.83;;
18142;SDS011;9197;50.930;3.140;2022-08-19T12:17:21;4.65;;;1.92;;
18142;SDS011;9197;50.930;3.140;2022-08-19T12:19:49;3.55;;;1.85;;
18142;SDS011;9197;50.930;3.140;2022-08-19T12:22:16;5.90;;;2.45;;
18142;SDS011;9197;50.930;3.140;2022-08-19T12:24:43;5.88;;;2.00;;
18142;SDS011;9197;50.930;3.140;2022-08-19T12:27:10;3.47;;;1.80;;
18142;SDS011;9197;50.930;3.140;2022-08-19T12:29:37;4.63;;;2.20;;
18142;SDS011;9197;50.930;3.140;2022-08-19T12:32:07;5.00;;;2.58;;
18142;SDS011;9197;50.930;3.140;2022-08-19T12:34:35;7.03;;;2.60;;
18142;SDS011;9197;50.930;3.140;2022-08-19T12:37:04;6.90;;;3.05;;
18142;SDS011;9197;50.930;3.140;2022-08-19T12:39:33;5.07;;;2.70;;
18142;SDS011;9197;50.930;3.140;2022-08-19T12:42:01;4.05;;;2.45;;
18142;SDS011;9197;50.930;3.140;2022-08-19T12:44:28;3.28;;;2.78;;
18142;SDS011;9197;50.930;3.140;2022-08-19T12:46:57;7.53;;;3.15;;
18142;SDS011;9197;50.930;3.140;2022-08-19T12:49:25;7.90;;;3.53;;
18142;SDS011;9197;50.930;3.140;2022-08-19T12:51:54;6.80;;;3.40;;
18142;SDS011;9197;50.930;3.140;2022-08-19T12:54:22;5.82;;;3.10;;
18142;SDS011;9197;50.930;3.140;2022-08-19T12:56:49;7.07;;;3.13;;
18142;SDS011;9197;50.930;3.140;2022-08-19T12:59:16;4.78;;;3.38;;
18142;SDS011;9197;50.930;3.140;2022-08-19T13:01:44;6.32;;;2.55;;
18142;SDS011;9197;50.930;3.140;2022-08-19T13:04:11;5.00;;;2.65;;
18142;SDS011;9197;50.930;3.140;2022-08-19T13:06:42;2.47;;;1.50;;
18142;SDS011;9197;50.930;3.140;2022-08-19T13:09:10;3.30;;;1.52;;
18142;SDS011;9197;50.930;3.140;2022-08-19T13:11:37;6.32;;;1.73;;
18142;SDS011;9197;50.930;3.140;2022-08-19T13:14:04;3.92;;;1.70;;
18142;SDS011;9197;50.930;3.140;2022-08-19T13:16:31;1.90;;;1.30;;
18142;SDS011;9197;50.930;3.140;2022-08-19T13:18:59;3.53;;;1.50;;
18142;SDS011;9197;50.930;3.140;2022-08-19T13:21:27;4.75;;;2.22;;
18142;SDS011;9197;50.930;3.140;2022-08-19T13:23:57;3.03;;;1.50;;
18142;SDS011;9197;50.930;3.140;2022-08-19T13:26:24;2.85;;;1.52;;
18142;SDS011;9197;50.930;3.140;2022-08-19T13:28:51;5.20;;;1.80;;
18142;SDS011;9197;50.930;3.140;2022-08-19T13:31:39;4.57;;;1.50;;
18142;SDS011;9197;50.930;3.140;2022-08-19T13:34:28;3.05;;;1.50;;
18142;SDS011;9197;50.930;3.140;2022-08-19T13:36:56;3.17;;;1.30;;
18142;SDS011;9197;50.930;3.140;2022-08-19T13:39:25;2.95;;;1.98;;
18142;SDS011;9197;50.930;3.140;2022-08-19T13:41:52;3.15;;;1.48;;
18142;SDS011;9197;50.930;3.140;2022-08-19T13:44:20;3.83;;;1.63;;
18142;SDS011;9197;50.930;3.140;2022-08-19T13:46:47;3.40;;;1.40;;
18142;SDS011;9197;50.930;3.140;2022-08-19T13:49:18;2.97;;;1.80;;
18142;SDS011;9197;50.930;3.140;2022-08-19T13:51:46;3.60;;;1.40;;
18142;SDS011;9197;50.930;3.140;2022-08-19T13:54:13;1.55;;;1.00;;
18142;SDS011;9197;50.930;3.140;2022-08-19T13:56:42;1.83;;;0.93;;
18142;SDS011;9197;50.930;3.140;2022-08-19T13:59:10;2.80;;;1.08;;
18142;SDS011;9197;50.930;3.140;2022-08-19T14:01:38;1.95;;;1.13;;
18142;SDS011;9197;50.930;3.140;2022-08-19T14:04:06;4.15;;;1.27;;
18142;SDS011;9197;50.930;3.140;2022-08-19T14:06:33;3.80;;;1.27;;
18142;SDS011;9197;50.930;3.140;2022-08-19T14:09:00;2.13;;;1.23;;
18142;SDS011;9197;50.930;3.140;2022-08-19T14:11:28;1.48;;;1.05;;
18142;SDS011;9197;50.930;3.140;2022-08-19T14:13:56;3.20;;;1.27;;
18142;SDS011;9197;50.930;3.140;2022-08-19T14:16:23;3.08;;;1.70;;
18142;SDS011;9197;50.930;3.140;2022-08-19T14:18:52;3.15;;;1.00;;
18142;SDS011;9197;50.930;3.140;2022-08-19T14:21:20;2.90;;;1.25;;
18142;SDS011;9197;50.930;3.140;2022-08-19T14:23:48;1.45;;;0.80;;
18142;SDS011;9197;50.930;3.140;2022-08-19T14:26:16;3.38;;;1.13;;
18142;SDS011;9197;50.930;3.140;2022-08-19T14:28:45;3.13;;;1.08;;
18142;SDS011;9197;50.930;3.140;2022-08-19T14:31:15;3.00;;;1.58;;
18142;SDS011;9197;50.930;3.140;2022-08-19T14:33:44;2.40;;;0.98;;
18142;SDS011;9197;50.930;3.140;2022-08-19T14:36:11;3.42;;;1.35;;
18142;SDS011;9197;50.930;3.140;2022-08-19T14:38:38;2.72;;;1.27;;
18142;SDS011;9197;50.930;3.140;2022-08-19T14:41:07;1.45;;;1.10;;
18142;SDS011;9197;50.930;3.140;2022-08-19T14:43:34;3.90;;;1.20;;
18142;SDS011;9197;50.930;3.140;2022-08-19T14:46:01;1.70;;;1.10;;
18142;SDS011;9197;50.930;3.140;2022-08-19T14:48:30;2.33;;;1.23;;
18142;SDS011;9197;50.930;3.140;2022-08-19T14:50:57;4.28;;;1.60;;
18142;SDS011;9197;50.930;3.140;2022-08-19T14:53:24;1.92;;;1.17;;
18142;SDS011;9197;50.930;3.140;2022-08-19T14:55:52;3.67;;;1.33;;